Etusivu
METAR-TAF:

METAR-TAF

Lentoasemat :

Sotilaslentoasema Cameri

Novara, Italia

Leveyspiiri: 45-31N, Pituuspiiri: 008-40E, korkeus merenpinnasta: 178 m

Tämänhetkinen sää

Tämä raportti tehtiin 3 tuntia ja 26 minuuttia sitten, kello 17.55 UTC
Tuuli 2 kn pohjoisesta
Lämpötila 7°C
Kosteus 93%
Ilmanpaine 1015 hPa
Näkyvyys: 7000 m
Hajanaisia pilviä 3000 ft:n korkeudessa
Pilvistä 6000 ft:n korkeudessa
heikkoa sadetta

METAR: LIMN 181755Z 35002KT 7000 -RA SCT030 OVC060 07/06 Q1015 RMK OVC VIS MIN 7000 WHT

Aika: 22:21 (21:21 UTC)

Sääennuste

Tämä raportti tehtiin 4 tuntia ja 21 minuuttia sitten, kello 17.00 UTC
Ennuste voimassa 18. päivästä klo 18 UTC - 19. päivään klo 03 UTC
Tuuli 5 kn pohjoisesta/koillisesta
Näkyvyys: 5000 m
Hajanaisia pilviä 2000 ft:n korkeudessa
Hajonneita pilviä 4000 ft:n korkeudessa
sadetta, utua

TAF: LIMN 181700Z 1818/1903 02005KT 5000 RA BR SCT020 BKN040

Säähavainnot ja -ennusteet yli 4000 lentoasemalta (METAR- ja TAF-raportit).

Käytössä olevat sääasemat on merkitty karttaan keltaisilla ja punaisilla pisteillä.

Aseta hiiri pisteen päälle nähdäksesi sääaseman nimen.

Klikkaa sitten nähdäksesi säähavainnot ja -ennusteet.

Kartan vaihtaminen: klikkaa mustalla rastilla varustettuja vihreitä pisteitä, niin voit zoomata sisään; viivalla varustettua vihreää pistettä, niin voit zoomata ulos tai vihreitä nuolia, niin pääset viereisille kartoille.


METAR-TAF: